Canton Center, Connecticut
Current Conditions -  °F | °C
As of 3:11 PM on Wednesday 26 Nov 2014 (Local Time) from KBDL Reporting Station
Light Snow Light Snow  
Wind Chill: 24°   Ceiling: 400
Heat Index: 34°   Visibility: 0.75mi
Dew Point: 31°   Wind: 15mph
Humidity: 89%   Direction: 10°N
Pressure: 29.93"   Gusts: 23mph
Location:  41.87°N, 72.91°W
Report Text: KBDL 262011Z 01013G20KT 3/4SM R06/5000VP6000FT -SN BR BKN004 OVC012 01/M01 A2993 RMK AO2 TWR VIS 1 PRESFR P0002 T00111006 $
Loading
Personal Weather Stations






























Interactive Weather Map New forecast layout! Learn more

10-Day Weather Forecast

Advertisements
Track Severe Weather on mobile